Accueil
METAR-TAF:

METAR-TAF

Aéroports :

Aérodrome de Samedan-Engadin

Saint-Moritz, Suisse

latitude: 46-32-03N, longitude: 9-53-03E, altitude: 1707 m

Observation

Le bulletin a été fait il y a 19 minutes, à 00:20 UTC
Vent 2 kt de direction variable
Température 7°C
Humidité 87%
Pression 1026 hPa
Visibilité 10 km ou plus
Nuages épars à une hauteur de 5000 ft
Nuages fragmentés à une hauteur de 6000 ft

METAR: LSZS 180020Z AUTO VRB02KT 9999 SCT050 BKN060 07/05 Q1026

Heure: 02:39 (00:39 UTC)

Prévision

Le bulletin a été fait il y a 10 heures et 14 minutes, à 14:25 UTC
Prévision valable du 17 à 15 UTC au 17 à 24 UTC
Vent 3 kt de direction variable
Visibilité 10 km ou plus
Quelques nuages à une hauteur de 6500 ft
Evoluant progressivement
du 17 à 17 UTC au 17 à 20 UTC
Visibilité 10 km ou plus
pas de nuages en-dessous de 1500 mètres et pas de cumulonimbus.

TAF: LSZS 171425Z 1715/1724 VRB03KT 9999 FEW065 TX17/1715Z BECMG 1717/1720 CAVOK

Observations et prévisions météorologiques de plus de 4000 aéroports (messages METAR et TAF).

Les stations disponibles sont représentées par des disques jaunes et rouges sur la carte.

Passer la souris dessus pour voir le nom de la station.

Cliquer dessus pour voir les observations et prévisions météorologiques.

Pour changer de carte: cliquez sur les boutons verts avec une croix noire pour zoomer, sur le bouton vert avec un tiret pour effectuer un zoom arrière, ou sur les flèches vertes pour les cartes adjacentes.


METAR-TAF: